createdAt,value
2022-10-13T00:01:12.869Z,15.60
2022-10-13T00:03:42.293Z,16.53
2022-10-13T00:06:10.851Z,16.93
2022-10-13T00:08:38.612Z,15.93
2022-10-13T00:11:13.019Z,15.43
2022-10-13T00:13:40.254Z,16.67
2022-10-13T00:16:08.604Z,14.63
2022-10-13T00:18:35.855Z,14.23
2022-10-13T00:21:07.964Z,13.63
2022-10-13T00:23:35.659Z,12.87
2022-10-13T00:26:08.546Z,14.23
2022-10-13T00:28:35.887Z,13.37
2022-10-13T00:31:02.820Z,13.37
2022-10-13T00:33:29.860Z,13.47
2022-10-13T00:35:56.784Z,14.80
2022-10-13T00:38:23.867Z,15.87
2022-10-13T00:40:54.475Z,15.90
2022-10-13T00:43:27.608Z,15.07
2022-10-13T00:45:54.926Z,14.57
2022-10-13T00:48:30.403Z,12.80
2022-10-13T00:50:58.816Z,13.57
2022-10-13T00:53:31.971Z,13.50
2022-10-13T00:55:59.631Z,14.70
2022-10-13T00:58:31.558Z,14.67
2022-10-13T01:00:59.295Z,14.20
2022-10-13T01:03:27.072Z,14.40
2022-10-13T01:05:58.092Z,13.63
2022-10-13T01:08:27.090Z,15.13
2022-10-13T01:11:19.493Z,14.20
2022-10-13T01:14:18.475Z,13.93
2022-10-13T01:17:01.341Z,14.50
2022-10-13T01:20:06.100Z,14.07
2022-10-13T01:22:41.792Z,13.53
2022-10-13T01:25:44.189Z,12.83
2022-10-13T01:28:35.154Z,13.17
2022-10-13T01:31:20.071Z,13.17
2022-10-13T01:34:15.600Z,12.63
2022-10-13T01:36:58.143Z,12.80
2022-10-13T01:39:46.352Z,12.07
2022-10-13T01:42:18.790Z,12.43
2022-10-13T01:44:58.024Z,12.87
2022-10-13T01:47:26.691Z,13.00
2022-10-13T01:49:55.152Z,12.90
2022-10-13T01:52:26.482Z,12.33
2022-10-13T01:54:54.803Z,13.20
2022-10-13T01:57:31.812Z,12.87
2022-10-13T02:00:02.214Z,12.23
2022-10-13T02:02:57.172Z,12.03
2022-10-13T02:05:49.445Z,12.97
2022-10-13T02:08:51.148Z,12.60
2022-10-13T02:11:21.525Z,11.63
2022-10-13T02:13:54.247Z,11.80
2022-10-13T02:16:23.695Z,11.80
2022-10-13T02:18:52.200Z,12.13
2022-10-13T02:21:19.322Z,12.57
2022-10-13T02:23:46.477Z,12.23
2022-10-13T02:26:14.097Z,12.23
2022-10-13T02:28:41.684Z,12.43
2022-10-13T02:31:09.480Z,12.10
2022-10-13T02:33:36.575Z,12.33
2022-10-13T02:36:03.807Z,12.63
2022-10-13T02:38:30.958Z,12.37
2022-10-13T02:40:58.018Z,12.67
2022-10-13T02:43:24.996Z,13.47
2022-10-13T02:45:52.060Z,11.50
2022-10-13T02:48:20.209Z,12.03
2022-10-13T02:50:47.821Z,14.20
2022-10-13T02:53:14.748Z,14.50
2022-10-13T02:55:41.820Z,13.20
2022-10-13T02:58:08.835Z,12.97
2022-10-13T03:00:35.784Z,13.87
2022-10-13T03:03:02.977Z,15.57
2022-10-13T03:05:29.920Z,15.87
2022-10-13T03:07:56.980Z,16.97
2022-10-13T03:10:24.006Z,17.67
2022-10-13T03:12:51.982Z,16.90
2022-10-13T03:15:18.921Z,17.07
2022-10-13T03:17:48.612Z,17.73
2022-10-13T03:20:15.858Z,17.50
2022-10-13T03:22:46.058Z,17.80
2022-10-13T03:25:16.873Z,17.63
2022-10-13T03:27:43.764Z,17.87
2022-10-13T03:30:11.569Z,18.47
2022-10-13T03:32:40.663Z,18.60
2022-10-13T03:35:08.299Z,17.03
2022-10-13T03:37:35.265Z,18.10
2022-10-13T03:40:02.163Z,17.60
2022-10-13T03:42:29.135Z,17.10
2022-10-13T03:44:56.675Z,18.27
2022-10-13T03:47:23.885Z,16.90
2022-10-13T03:49:51.119Z,16.23
2022-10-13T03:52:18.393Z,16.20
2022-10-13T03:54:45.529Z,17.60
2022-10-13T03:57:12.565Z,18.50
2022-10-13T03:59:41.211Z,18.40
2022-10-13T04:02:08.321Z,20.37
2022-10-13T04:04:37.085Z,19.37
2022-10-13T04:07:04.061Z,20.07
2022-10-13T04:09:31.085Z,18.33
2022-10-13T04:11:58.054Z,18.93
2022-10-13T04:14:25.049Z,18.20
2022-10-13T04:16:52.112Z,18.83
2022-10-13T04:19:19.033Z,19.97
2022-10-13T04:21:45.959Z,18.53
2022-10-13T04:24:14.395Z,17.73
2022-10-13T04:26:41.692Z,19.50
2022-10-13T04:29:10.347Z,18.73
2022-10-13T04:31:38.586Z,20.53
2022-10-13T04:34:05.891Z,19.67
2022-10-13T04:36:32.814Z,20.00
2022-10-13T04:38:59.711Z,20.60
2022-10-13T04:41:26.854Z,19.63
2022-10-13T04:43:55.007Z,20.00
2022-10-13T04:46:26.951Z,19.27
2022-10-13T04:48:56.587Z,19.50
2022-10-13T04:51:29.300Z,19.00
2022-10-13T04:54:01.149Z,20.13
2022-10-13T04:56:28.957Z,19.07
2022-10-13T04:59:01.641Z,18.07
2022-10-13T05:01:28.649Z,18.90
2022-10-13T05:03:58.555Z,20.20
2022-10-13T05:06:34.515Z,19.10
2022-10-13T05:09:02.105Z,20.33
2022-10-13T05:11:29.838Z,21.93
2022-10-13T05:13:58.227Z,21.07
2022-10-13T05:16:25.987Z,21.47
2022-10-13T05:18:54.657Z,21.90
2022-10-13T05:21:25.072Z,19.23
2022-10-13T05:23:54.373Z,20.10
2022-10-13T05:26:22.953Z,17.77
2022-10-13T05:28:50.127Z,19.30
2022-10-13T05:31:23.136Z,17.33
2022-10-13T05:33:51.851Z,18.20
2022-10-13T05:36:24.919Z,18.10
2022-10-13T05:38:56.939Z,16.73
2022-10-13T05:41:25.862Z,17.37
2022-10-13T05:43:59.461Z,17.30
2022-10-13T05:46:26.628Z,17.20
2022-10-13T05:48:54.076Z,17.40
2022-10-13T05:51:24.607Z,16.93
2022-10-13T05:54:26.423Z,15.90
2022-10-13T05:57:08.577Z,15.03
2022-10-13T05:59:39.876Z,16.57
2022-10-13T06:02:09.738Z,15.80
2022-10-13T06:04:47.735Z,14.67
2022-10-13T06:07:14.891Z,14.27
2022-10-13T06:09:42.496Z,15.10
2022-10-13T06:12:10.244Z,14.83
2022-10-13T06:14:37.481Z,14.27
2022-10-13T06:17:06.952Z,13.70
2022-10-13T06:19:34.130Z,14.00
2022-10-13T06:22:07.837Z,12.40
2022-10-13T06:24:34.844Z,12.93
2022-10-13T06:27:03.967Z,13.03
2022-10-13T06:29:30.918Z,13.03
2022-10-13T06:31:57.790Z,12.73
2022-10-13T06:34:24.712Z,12.70
2022-10-13T06:36:51.645Z,14.13
2022-10-13T06:39:18.609Z,14.03
2022-10-13T06:41:45.584Z,14.93
2022-10-13T06:44:12.510Z,13.90
2022-10-13T06:46:39.388Z,12.90
2022-10-13T06:49:06.419Z,11.50
2022-10-13T06:51:33.335Z,12.27
2022-10-13T06:54:00.507Z,12.53
2022-10-13T06:56:29.888Z,12.33
2022-10-13T06:58:59.174Z,14.10
2022-10-13T07:01:26.074Z,13.07
2022-10-13T07:03:53.058Z,12.10
2022-10-13T07:06:21.149Z,12.90
2022-10-13T07:08:50.015Z,12.63
2022-10-13T07:11:18.674Z,12.03
2022-10-13T07:13:50.170Z,11.93
2022-10-13T07:16:17.596Z,11.67
2022-10-13T07:18:46.816Z,11.70
2022-10-13T07:21:13.804Z,11.77
2022-10-13T07:23:40.851Z,11.47
2022-10-13T07:26:09.432Z,11.77
2022-10-13T07:28:36.479Z,11.80
2022-10-13T07:31:10.998Z,12.00
2022-10-13T07:33:38.632Z,11.80
2022-10-13T07:36:05.749Z,12.70
2022-10-13T07:38:32.984Z,12.93
2022-10-13T07:41:04.865Z,13.83
2022-10-13T07:43:32.204Z,13.47
2022-10-13T07:46:01.199Z,13.47
2022-10-13T07:48:28.684Z,13.57
2022-10-13T07:51:02.903Z,15.97
2022-10-13T07:53:29.856Z,14.13
2022-10-13T07:56:01.123Z,15.10
